Time;durP1;ratioP1;P1;durP2;ratioP2;P2;SDS_P1;SDS_P2;PMS_P1;PMS_P2;Temp;Humidity;BMP_temperature;BMP_pressure;BME280_temperature;BME280_humidity;BME280_pressure;Samples;Min_cycle;Max_cycle;Signal;HPM_P1;HPM_P2
2023/01/23 00:00:25;;;;;;;;;48.25;37.50;;;;;5.78;55.63;102804.31;5063129;27;46176;-63
2023/01/23 00:02:51;;;;;;;;;40.00;32.75;;;;;5.67;56.40;102779.56;5067261;27;45440;-65
2023/01/23 00:05:16;;;;;;;;;37.50;31.75;;;;;5.81;56.39;102805.47;5076050;27;45298;-66
2023/01/23 00:07:41;;;;;;;;;42.50;33.50;;;;;5.84;56.06;102802.09;5078116;27;45363;-65
2023/01/23 00:10:08;;;;;;;;;32.75;31.75;;;;;5.78;56.01;102804.31;5081658;27;46411;-63
2023/01/23 00:12:33;;;;;;;;;55.50;38.25;;;;;5.67;56.04;102787.53;5082199;27;45690;-63
2023/01/23 00:14:58;;;;;;;;;45.75;35.50;;;;;5.69;56.50;102780.59;5096831;27;45366;-64
2023/01/23 00:17:29;;;;;;;;;54.00;36.50;;;;;5.84;56.24;102799.47;5093671;27;45229;-64
2023/01/23 00:19:55;;;;;;;;;51.00;32.50;;;;;5.59;55.82;102756.81;5099532;27;47101;-65
2023/01/23 00:22:20;;;;;;;;;49.75;37.25;;;;;5.89;55.88;102807.00;5098426;27;45386;-65
2023/01/23 00:24:46;;;;;;;;;42.25;30.75;;;;;5.92;56.25;102800.97;5093162;27;45607;-63
2023/01/23 00:27:11;;;;;;;;;43.75;37.50;;;;;5.90;55.78;102797.28;5097111;27;46210;-62
2023/01/23 00:29:37;;;;;;;;;44.25;34.25;;;;;5.90;55.54;102800.88;5092786;27;53480;-63
2023/01/23 00:32:02;;;;;;;;;39.50;31.25;;;;;5.87;55.86;102805.97;5096509;27;47483;-63
2023/01/23 00:34:28;;;;;;;;;28.75;28.75;;;;;5.62;56.35;102755.34;5092105;27;45548;-64
2023/01/23 00:36:53;;;;;;;;;37.25;32.00;;;;;5.78;55.85;102778.69;5094515;27;45615;-65
2023/01/23 00:39:20;;;;;;;;;43.75;34.50;;;;;5.88;56.07;102809.53;5096196;27;46429;-64
2023/01/23 00:41:47;;;;;;;;;45.25;31.50;;;;;5.86;55.64;102805.84;5096139;27;45465;-64
2023/01/23 00:44:14;;;;;;;;;47.75;35.25;;;;;5.78;56.46;102789.31;5097096;27;45588;-64
2023/01/23 00:46:39;;;;;;;;;48.50;33.75;;;;;5.87;56.29;102800.66;5094357;27;45905;-65
2023/01/23 00:49:05;;;;;;;;;33.00;24.75;;;;;5.85;56.41;102810.19;5090966;27;46291;-64
2023/01/23 00:51:31;;;;;;;;;43.00;32.50;;;;;5.86;56.13;102817.34;5077674;27;45370;-64
2023/01/23 00:53:56;;;;;;;;;49.00;34.25;;;;;5.89;55.98;102816.69;5091275;27;45631;-64
2023/01/23 00:56:22;;;;;;;;;39.75;31.50;;;;;5.89;56.34;102808.72;5089461;27;45564;-65
2023/01/23 00:58:47;;;;;;;;;49.50;37.25;;;;;5.83;56.19;102797.63;5074217;27;48862;-64
2023/01/23 01:01:15;;;;;;;;;35.25;30.00;;;;;5.89;55.89;102806.06;5096765;27;45459;-65
2023/01/23 01:03:40;;;;;;;;;38.25;30.50;;;;;5.84;56.07;102796.81;5096866;27;46145;-65
2023/01/23 01:06:06;;;;;;;;;48.50;37.00;;;;;5.86;55.95;102809.41;5096434;27;45625;-64
2023/01/23 01:08:31;;;;;;;;;38.50;33.25;;;;;5.86;56.49;102809.41;5091700;27;45399;-63
2023/01/23 01:10:57;;;;;;;;;46.25;36.25;;;;;5.79;56.36;102792.88;5101297;27;45305;-63
2023/01/23 01:13:23;;;;;;;;;42.50;35.75;;;;;5.88;56.48;102804.22;5099808;27;45401;-64
2023/01/23 01:15:51;;;;;;;;;39.00;34.25;;;;;5.81;56.10;102792.19;5095230;27;45562;-62
2023/01/23 01:18:17;;;;;;;;;43.25;31.50;;;;;5.87;55.72;102797.03;5092120;27;45778;-63
2023/01/23 01:20:43;;;;;;;;;40.75;32.75;;;;;5.82;56.13;102794.03;5096706;27;45480;-63
2023/01/23 01:23:10;;;;;;;;;40.50;31.75;;;;;4.85;56.05;102619.44;5092250;27;45508;-63
2023/01/23 01:25:36;;;;;;;;;38.50;36.25;;;;;5.68;56.66;102771.75;5097445;27;45327;-63
2023/01/23 01:28:01;;;;;;;;;52.00;33.50;;;;;5.79;56.55;102798.19;5079501;27;45512;-64
2023/01/23 01:30:28;;;;;;;;;35.00;27.25;;;;;5.79;56.49;102803.47;5075448;27;45513;-64
2023/01/23 01:32:54;;;;;;;;;40.25;34.75;;;;;5.63;56.36;102778.41;5091493;27;45606;-66
2023/01/23 01:35:20;;;;;;;;;36.00;31.25;;;;;5.83;56.56;102802.94;5098822;27;45449;-63
2023/01/23 01:37:45;;;;;;;;;39.75;31.00;;;;;5.74;56.77;102768.63;5095880;27;46177;-63
2023/01/23 01:40:15;;;;;;;;;47.75;35.75;;;;;5.87;56.30;102797.03;5096798;27;45559;-64
2023/01/23 01:42:47;;;;;;;;;42.25;33.50;;;;;5.88;56.52;102789.22;5078095;27;45564;-63
2023/01/23 01:45:50;;;;;;;;;38.25;33.75;;;;;5.85;56.40;102791.63;5089119;27;45604;-64
2023/01/23 01:48:17;;;;;;;;;34.50;30.75;;;;;5.69;56.37;102770.00;5096580;27;47301;-64
2023/01/23 01:50:42;;;;;;;;;41.50;36.00;;;;;5.78;57.04;102776.03;5095609;27;45392;-64
2023/01/23 01:53:10;;;;;;;;;41.00;35.75;;;;;5.74;56.49;102765.97;5091972;27;45553;-64
2023/01/23 01:55:36;;;;;;;;;43.50;35.75;;;;;5.78;56.44;102765.44;5075413;27;45712;-62
2023/01/23 01:58:02;;;;;;;;;54.50;35.75;;;;;5.80;56.25;102763.81;5093595;27;45557;-63
2023/01/23 02:00:28;;;;;;;;;54.75;34.00;;;;;5.88;56.50;102780.34;5098818;27;45462;-63
2023/01/23 02:03:00;;;;;;;;;45.25;33.00;;;;;5.87;56.53;102783.78;5077774;27;45417;-64
2023/01/23 02:05:29;;;;;;;;;40.75;34.75;;;;;5.90;56.34;102789.34;5096712;27;45440;-64
2023/01/23 02:08:04;;;;;;;;;39.50;34.75;;;;;5.85;56.29;102788.97;5096760;27;47005;-63
2023/01/23 02:10:31;;;;;;;;;37.75;27.25;;;;;5.83;56.38;102779.97;5099718;27;45377;-65
2023/01/23 02:13:19;;;;;;;;;44.00;33.75;;;;;5.79;56.63;102769.00;5090474;27;45567;-63
2023/01/23 02:15:46;;;;;;;;;42.25;32.25;;;;;5.77;56.63;102762.66;5091833;27;45553;-64
2023/01/23 02:18:11;;;;;;;;;38.75;32.75;;;;;5.84;56.57;102780.88;5090524;27;46232;-66
2023/01/23 02:20:37;;;;;;;;;44.50;31.25;;;;;5.75;57.10;102764.28;5100059;27;45289;-64
2023/01/23 02:23:22;;;;;;;;;38.00;32.50;;;;;5.83;56.58;102769.38;5092949;27;45352;-64
2023/01/23 02:25:53;;;;;;;;;54.00;41.25;;;;;5.84;56.53;102772.94;5077765;27;45644;-64
2023/01/23 02:28:19;;;;;;;;;42.00;33.00;;;;;5.85;56.49;102783.66;5095851;27;45988;-64
2023/01/23 02:30:45;;;;;;;;;36.75;28.75;;;;;5.85;56.73;102780.09;5096530;27;45658;-66
2023/01/23 02:33:19;;;;;;;;;45.25;33.25;;;;;5.85;56.64;102780.09;5097534;27;45387;-64
2023/01/23 02:35:45;;;;;;;;;42.25;36.50;;;;;5.91;56.42;102777.94;5095791;27;45338;-62
2023/01/23 02:38:11;;;;;;;;;45.25;33.00;;;;;5.93;56.43;102784.28;5094991;27;46195;-64
2023/01/23 02:40:39;;;;;;;;;43.00;32.00;;;;;5.77;56.72;102757.34;5094990;27;45407;-63
2023/01/23 02:43:08;;;;;;;;;42.50;31.50;;;;;5.89;56.63;102779.56;5091443;27;45603;-63
2023/01/23 02:45:33;;;;;;;;;43.75;35.50;;;;;5.86;56.33;102788.19;5095251;27;45592;-62
2023/01/23 02:48:00;;;;;;;;;42.00;31.75;;;;;5.84;56.68;102789.78;5095209;27;45467;-65
2023/01/23 02:50:26;;;;;;;;;44.00;31.25;;;;;5.85;56.62;102793.34;5094085;27;45485;-65
2023/01/23 02:52:53;;;;;;;;;44.50;35.50;;;;;5.85;56.66;102804.88;5091801;27;45797;-65
2023/01/23 02:55:22;;;;;;;;;48.75;34.50;;;;;5.82;56.58;102806.38;5073403;27;45762;-65
2023/01/23 02:57:48;;;;;;;;;38.75;33.25;;;;;5.81;56.93;102800.16;5092872;27;46105;-65
2023/01/23 03:00:19;;;;;;;;;47.25;38.00;;;;;5.83;56.27;102811.81;5089904;27;45390;-63
2023/01/23 03:02:49;;;;;;;;;40.00;32.75;;;;;5.79;56.73;102799.13;5095527;27;45408;-64
2023/01/23 03:05:16;;;;;;;;;42.00;34.50;;;;;5.66;56.66;102780.38;5077161;27;45585;-64
2023/01/23 03:07:41;;;;;;;;;41.75;32.75;;;;;5.82;56.61;102795.78;5093787;27;46095;-64
2023/01/23 03:10:08;;;;;;;;;56.00;36.50;;;;;5.77;57.16;102797.13;5094907;27;45394;-62
2023/01/23 03:12:36;;;;;;;;;47.75;36.00;;;;;5.76;56.72;102795.28;5094929;27;45418;-63
2023/01/23 03:15:04;;;;;;;;;38.50;27.00;;;;;5.69;57.01;102794.81;5095154;27;45504;-66
2023/01/23 03:17:31;;;;;;;;;42.75;32.75;;;;;5.70;57.02;102798.38;5100034;27;46038;-64
2023/01/23 03:19:56;;;;;;;;;36.00;34.50;;;;;5.68;57.09;102789.38;5098458;27;45286;-64
2023/01/23 03:22:22;;;;;;;;;45.50;32.00;;;;;5.70;57.44;102793.09;5095440;27;45385;-65
2023/01/23 03:24:47;;;;;;;;;44.25;36.00;;;;;5.73;57.47;102795.97;5100735;27;45488;-65
2023/01/23 03:27:12;;;;;;;;;39.50;35.00;;;;;5.76;57.66;102792.63;5099847;27;53381;-65
2023/01/23 03:32:24;;;;;;;;;51.50;36.00;;;;;5.76;57.49;102789.97;5095067;27;45558;-64
2023/01/23 03:34:50;;;;;;;;;50.00;36.25;;;;;5.77;57.25;102791.84;5074851;27;45679;-65
2023/01/23 03:37:18;;;;;;;;;45.00;33.50;;;;;5.74;57.32;102795.16;5094388;27;45938;-64
2023/01/23 03:42:29;;;;;;;;;42.75;37.00;;;;;5.65;57.19;102783.84;5093568;27;45556;-64
2023/01/23 03:44:54;;;;;;;;;42.75;35.00;;;;;5.54;57.45;102778.63;5096963;27;45518;-65
2023/01/23 03:47:19;;;;;;;;;47.00;33.25;;;;;5.68;57.55;102797.34;5095557;27;46200;-64
2023/01/23 03:49:45;;;;;;;;;42.00;35.25;;;;;5.71;57.51;102798.50;5091378;27;45471;-63
2023/01/23 03:52:10;;;;;;;;;46.75;34.25;;;;;5.75;57.70;102793.44;5090047;27;55803;-64
2023/01/23 03:54:36;;;;;;;;;35.25;32.00;;;;;5.61;57.44;102776.44;5094739;27;45426;-62
2023/01/23 03:57:01;;;;;;;;;42.00;32.75;;;;;5.71;57.46;102795.84;5095704;27;45358;-63
2023/01/23 03:59:26;;;;;;;;;40.00;28.00;;;;;5.66;57.82;102788.31;5100108;27;45236;-63
2023/01/23 04:01:52;;;;;;;;;45.50;38.00;;;;;5.72;57.82;102786.16;5100865;27;53042;-64
2023/01/23 04:04:17;;;;;;;;;39.50;33.50;;;;;5.70;57.50;102796.66;5102932;27;45417;-63
2023/01/23 04:06:42;;;;;;;;;54.00;39.50;;;;;5.70;57.95;102788.69;5092131;27;45285;-65
2023/01/23 04:09:08;;;;;;;;;49.50;41.00;;;;;5.72;57.41;102787.09;5096910;27;46881;-63
2023/01/23 04:11:33;;;;;;;;;47.00;35.25;;;;;5.70;57.12;102788.69;5076698;27;45354;-65
2023/01/23 04:13:58;;;;;;;;;46.50;37.50;;;;;5.59;57.45;102771.00;5086820;27;45514;-64
2023/01/23 04:16:24;;;;;;;;;43.75;35.00;;;;;5.68;57.29;102786.75;5073536;27;46207;-64
2023/01/23 04:18:49;;;;;;;;;50.75;38.00;;;;;5.69;57.13;102789.50;5056088;27;45304;-63
2023/01/23 04:21:15;;;;;;;;;38.50;35.00;;;;;5.71;57.43;102786.97;5075065;27;45393;-64
2023/01/23 04:23:40;;;;;;;;;40.50;30.50;;;;;5.69;57.10;102797.47;5063587;27;45453;-63
2023/01/23 04:26:06;;;;;;;;;53.25;35.75;;;;;5.66;57.50;102791.91;5073963;27;45387;-64
2023/01/23 04:28:31;;;;;;;;;46.75;32.75;;;;;5.67;57.22;102808.75;5069860;27;45493;-63
2023/01/23 04:30:56;;;;;;;;;42.75;34.25;;;;;5.56;58.05;102784.03;5067065;27;45596;-63
2023/01/23 04:33:22;;;;;;;;;39.75;33.25;;;;;5.67;57.86;102804.34;5060762;28;45315;-63
2023/01/23 04:35:54;;;;;;;;;39.25;30.25;;;;;5.70;57.65;102801.94;5072195;27;46078;-64
2023/01/23 04:38:20;;;;;;;;;48.50;34.50;;;;;5.73;57.79;102811.88;5055209;28;45388;-64
2023/01/23 04:40:47;;;;;;;;;41.25;31.00;;;;;5.71;57.88;102808.19;5073649;27;45399;-65
2023/01/23 04:43:13;;;;;;;;;46.25;36.50;;;;;5.70;57.53;102806.34;5072097;27;45398;-64
2023/01/23 04:45:38;;;;;;;;;39.25;32.00;;;;;5.72;58.17;102810.97;5069684;27;45563;-64
2023/01/23 04:48:04;;;;;;;;;52.75;38.75;;;;;5.75;58.12;102809.38;5071819;27;45724;-64
2023/01/23 04:50:30;;;;;;;;;45.25;35.75;;;;;5.69;57.67;102807.13;5081099;27;45406;-63
2023/01/23 04:52:57;;;;;;;;;44.75;34.00;;;;;5.63;57.54;102796.97;5074835;27;45524;-63
2023/01/23 04:55:22;;;;;;;;;46.25;36.50;;;;;5.72;57.72;102813.63;5054601;27;46176;-65
2023/01/23 04:57:47;;;;;;;;;45.75;34.75;;;;;5.73;57.87;102810.16;5075544;27;45438;-65
2023/01/23 05:00:13;;;;;;;;;46.00;35.50;;;;;5.56;57.98;102776.09;5061490;27;45418;-65
2023/01/23 05:02:39;;;;;;;;;60.25;39.75;;;;;5.67;58.08;102792.84;5081112;27;45936;-67
2023/01/23 05:05:05;;;;;;;;;38.25;33.50;;;;;5.72;57.85;102803.03;5089439;27;46339;-64
2023/01/23 05:07:30;;;;;;;;;43.50;37.00;;;;;5.81;58.01;102818.72;5054625;27;45445;-64
2023/01/23 05:09:56;;;;;;;;;51.25;37.50;;;;;5.73;58.13;102798.63;5076331;27;45915;-64
2023/01/23 05:12:21;;;;;;;;;51.25;33.50;;;;;5.78;57.61;102814.91;5039841;27;45513;-63
2023/01/23 05:14:46;;;;;;;;;42.00;35.25;;;;;5.73;57.36;102814.53;5089522;27;59642;-64
2023/01/23 05:17:12;;;;;;;;;39.50;33.25;;;;;5.70;57.99;102809.00;5097286;27;45500;-63
2023/01/23 05:19:38;;;;;;;;;53.00;37.50;;;;;5.70;58.49;102816.94;5092809;27;45449;-66
2023/01/23 05:22:03;;;;;;;;;39.25;35.75;;;;;5.69;57.97;102820.38;5098116;27;45287;-63
2023/01/23 05:24:29;;;;;;;;;35.75;29.50;;;;;5.69;58.30;102825.69;5100789;27;45364;-63
2023/01/23 05:26:54;;;;;;;;;48.25;36.25;;;;;5.73;57.96;102835.75;5100458;27;45479;-63
2023/01/23 05:29:19;;;;;;;;;48.75;37.00;;;;;5.75;58.48;102830.59;5094495;27;45635;-63
2023/01/23 05:31:45;;;;;;;;;47.75;34.50;;;;;5.77;58.01;102823.66;5095099;27;45461;-63
2023/01/23 05:34:10;;;;;;;;;44.00;33.50;;;;;5.80;57.91;102832.78;5096335;27;45740;-63
2023/01/23 05:36:35;;;;;;;;;33.00;29.50;;;;;5.80;57.37;102829.22;5095464;27;45448;-65
2023/01/23 05:39:01;;;;;;;;;53.75;36.25;;;;;5.78;57.93;102825.53;5096818;27;45344;-65
2023/01/23 05:41:26;;;;;;;;;47.75;33.00;;;;;5.76;58.01;102819.16;5096697;27;45487;-64
2023/01/23 05:43:51;;;;;;;;;47.75;33.50;;;;;5.87;57.45;102835.13;5095634;27;46297;-64
2023/01/23 05:46:17;;;;;;;;;43.25;33.00;;;;;5.85;57.83;102835.81;5096239;27;52383;-63
2023/01/23 05:48:42;;;;;;;;;49.00;35.25;;;;;5.78;57.72;102828.19;5096517;27;45504;-63
2023/01/23 05:51:07;;;;;;;;;40.75;34.00;;;;;5.87;57.28;102852.75;5092320;27;45602;-64
2023/01/23 05:53:33;;;;;;;;;44.75;34.75;;;;;5.77;57.84;102829.88;5091080;27;46539;-65
2023/01/23 05:55:58;;;;;;;;;59.75;39.00;;;;;5.82;57.88;102830.25;5096640;27;45600;-65
2023/01/23 05:58:23;;;;;;;;;45.00;33.75;;;;;5.82;57.79;102819.63;5095787;27;46184;-65
2023/01/23 06:00:48;;;;;;;;;51.50;36.00;;;;;5.89;57.61;102835.25;5095792;27;45535;-64
2023/01/23 06:03:14;;;;;;;;;43.00;33.50;;;;;5.81;57.73;102831.06;5105864;27;45393;-66
2023/01/23 06:05:40;;;;;;;;;39.75;32.00;;;;;5.78;57.78;102823.78;5094505;27;45291;-62
2023/01/23 06:08:05;;;;;;;;;37.00;33.75;;;;;5.69;57.44;102813.38;5099406;27;45550;-64
2023/01/23 06:10:31;;;;;;;;;39.00;31.75;;;;;5.94;57.33;102857.78;5104612;27;45524;-64
2023/01/23 06:12:56;;;;;;;;;35.75;25.25;;;;;5.81;57.47;102841.69;5093792;27;46104;-66
2023/01/23 06:15:22;;;;;;;;;44.25;32.25;;;;;4.93;57.41;102702.13;5081409;27;45409;-64
2023/01/23 06:17:47;;;;;;;;;48.25;33.75;;;;;5.56;57.62;102823.81;5076025;27;45355;-65
2023/01/23 06:20:12;;;;;;;;;37.75;29.50;;;;;5.65;57.18;102843.09;5079682;27;45363;-65
2023/01/23 06:22:38;;;;;;;;;26.75;24.25;;;;;5.76;57.28;102869.53;5085345;27;45585;-65
2023/01/23 06:25:04;;;;;;;;;40.75;28.25;;;;;5.76;57.12;102878.44;5078930;27;45489;-64
2023/01/23 06:27:29;;;;;;;;;40.00;31.50;;;;;5.77;57.25;102874.97;5080635;27;45636;-64
2023/01/23 06:29:54;;;;;;;;;35.50;25.50;;;;;5.75;57.09;102875.66;5077065;27;45454;-66
2023/01/23 06:32:22;;;;;;;;;37.00;31.00;;;;;5.78;56.86;102875.91;5074087;27;45959;-65
2023/01/23 06:34:47;;;;;;;;;43.25;38.25;;;;;5.78;57.03;102876.84;5075847;27;45525;-64
2023/01/23 06:37:13;;;;;;;;;38.25;27.50;;;;;5.82;57.19;102870.03;5073903;27;45676;-65
2023/01/23 06:39:38;;;;;;;;;48.75;29.50;;;;;5.85;57.36;102873.84;5076678;27;45450;-65
2023/01/23 06:42:08;;;;;;;;;47.25;32.50;;;;;5.87;56.74;102879.28;5057661;27;47648;-65
2023/01/23 06:44:34;;;;;;;;;48.50;38.25;;;;;5.76;56.56;102870.50;5073080;27;45330;-63
2023/01/23 06:46:59;;;;;;;;;42.50;31.75;;;;;5.82;57.02;102878.91;5073762;27;45449;-64
2023/01/23 06:49:24;;;;;;;;;44.50;32.00;;;;;5.80;57.01;102866.34;5070382;27;47964;-65
2023/01/23 06:51:50;;;;;;;;;44.75;32.25;;;;;5.84;57.15;102872.03;5075662;27;46327;-64
2023/01/23 06:54:15;;;;;;;;;36.25;27.50;;;;;5.65;56.92;102852.78;5073744;27;45419;-65
2023/01/23 06:56:40;;;;;;;;;33.25;29.75;;;;;5.72;57.15;102856.06;5071422;27;45449;-66
2023/01/23 06:59:06;;;;;;;;;34.50;25.75;;;;;5.79;57.51;102872.44;5082748;27;45445;-64
2023/01/23 07:01:31;;;;;;;;;45.25;33.25;;;;;5.77;57.03;102879.38;5055065;28;46082;-66
2023/01/23 07:03:57;;;;;;;;;47.00;35.00;;;;;5.78;57.51;102870.63;5069046;27;45607;-64
2023/01/23 07:06:22;;;;;;;;;36.25;26.00;;;;;5.81;57.32;102865.56;5087922;27;45337;-65
2023/01/23 07:08:48;;;;;;;;;43.75;34.75;;;;;5.81;57.01;102860.25;5075683;27;45589;-64
2023/01/23 07:11:14;;;;;;;;;49.50;36.00;;;;;5.83;57.30;102854.25;5094271;27;46025;-66
2023/01/23 07:13:41;;;;;;;;;44.50;36.25;;;;;5.93;57.68;102869.16;5086995;27;45297;-65
2023/01/23 07:16:06;;;;;;;;;51.25;38.50;;;;;5.88;57.34;102868.81;5079877;27;45476;-64
2023/01/23 07:18:32;;;;;;;;;45.75;32.75;;;;;5.90;57.60;102860.97;5077040;27;45603;-64
2023/01/23 07:20:58;;;;;;;;;41.75;31.75;;;;;5.82;56.99;102849.72;5069402;27;45958;-63
2023/01/23 07:23:23;;;;;;;;;38.75;33.25;;;;;5.78;56.99;102838.78;5068561;27;45441;-64
2023/01/23 07:25:49;;;;;;;;;42.00;31.50;;;;;5.84;56.83;102860.47;5073408;27;45398;-63
2023/01/23 07:28:14;;;;;;;;;41.25;29.00;;;;;5.85;56.73;102859.69;5075032;27;45564;-64
2023/01/23 07:30:40;;;;;;;;;40.25;36.75;;;;;5.51;57.09;102818.13;5073166;27;45614;-65
2023/01/23 07:33:05;;;;;;;;;49.25;38.50;;;;;5.73;57.43;102857.88;5070672;27;45555;-64
2023/01/23 07:35:31;;;;;;;;;51.25;36.00;;;;;5.87;57.75;102874.94;5048147;27;45665;-62
2023/01/23 07:37:57;;;;;;;;;36.50;28.00;;;;;5.83;57.40;102870.16;5082021;27;45565;-66
2023/01/23 07:40:23;;;;;;;;;35.75;31.00;;;;;4.89;57.10;102719.50;5076013;27;45433;-66
2023/01/23 07:42:48;;;;;;;;;39.00;31.75;;;;;5.81;57.38;102878.81;5074329;27;45515;-64
2023/01/23 07:45:14;;;;;;;;;39.50;30.75;;;;;5.76;57.89;102877.50;5074750;27;45414;-66
2023/01/23 07:47:39;;;;;;;;;46.75;37.25;;;;;5.79;58.12;102885.69;5070780;27;45629;-66
2023/01/23 07:50:10;;;;;;;;;42.50;36.00;;;;;5.78;57.21;102874.19;5074035;27;45394;-66
2023/01/23 07:52:37;;;;;;;;;39.75;30.50;;;;;5.77;57.75;102874.06;5073045;27;45773;-67
2023/01/23 07:55:03;;;;;;;;;47.75;30.75;;;;;5.76;57.42;102888.09;5079684;27;45506;-63
2023/01/23 07:57:29;;;;;;;;;55.00;38.25;;;;;5.73;57.87;102879.09;5056116;27;46514;-67
2023/01/23 07:59:54;;;;;;;;;40.25;32.25;;;;;5.70;57.36;102878.84;5069638;27;46523;-67
2023/01/23 08:02:19;;;;;;;;;35.75;32.50;;;;;5.75;57.37;102884.53;5070342;27;45498;-65
2023/01/23 08:04:45;;;;;;;;;39.25;29.25;;;;;5.64;57.09;102874.78;5077875;27;45256;-66
2023/01/23 08:07:10;;;;;;;;;55.50;36.75;;;;;5.67;57.58;102880.34;5076654;27;45517;-64
2023/01/23 08:09:37;;;;;;;;;39.50;31.50;;;;;5.73;57.87;102889.72;5077028;27;46208;-64
2023/01/23 08:12:03;;;;;;;;;48.75;36.50;;;;;5.58;57.58;102863.72;5037124;28;45415;-65
2023/01/23 08:14:28;;;;;;;;;42.25;35.25;;;;;5.63;57.84;102875.63;5074266;27;45621;-67
2023/01/23 08:16:54;;;;;;;;;43.50;31.50;;;;;5.73;57.66;102875.53;5071213;27;45221;-63
2023/01/23 08:19:19;;;;;;;;;48.50;36.25;;;;;5.71;57.69;102879.81;5072533;27;46712;-66
2023/01/23 08:21:46;;;;;;;;;50.00;36.00;;;;;5.63;58.06;102876.53;5065283;27;45642;-66
2023/01/23 08:24:12;;;;;;;;;58.75;45.25;;;;;5.80;58.17;102891.13;5081203;27;45367;-66
2023/01/23 08:26:39;;;;;;;;;48.50;36.50;;;;;5.85;57.24;102892.44;5077886;28;45284;-66
2023/01/23 08:29:04;;;;;;;;;47.50;35.25;;;;;5.92;57.23;102891.19;5086331;27;45418;-66
2023/01/23 08:31:30;;;;;;;;;50.25;40.75;;;;;5.98;57.55;102889.06;5076173;27;45493;-67
2023/01/23 08:33:55;;;;;;;;;49.50;41.00;;;;;6.04;57.33;102893.94;5074030;27;45433;-66
2023/01/23 08:36:21;;;;;;;;;47.75;38.50;;;;;5.96;57.03;102872.09;5084087;27;48096;-66
2023/01/23 08:38:46;;;;;;;;;43.75;34.75;;;;;6.09;57.39;102885.53;5087344;27;45361;-66
2023/01/23 08:41:12;;;;;;;;;52.50;35.00;;;;;6.16;57.24;102894.00;5073830;27;45395;-67
2023/01/23 08:43:40;;;;;;;;;47.25;31.75;;;;;6.17;57.01;102903.78;5086624;27;45446;-66
2023/01/23 08:46:07;;;;;;;;;45.75;38.00;;;;;6.10;56.51;102889.09;5084888;27;45439;-65
2023/01/23 08:48:34;;;;;;;;;32.25;32.00;;;;;6.07;56.79;102887.16;5065411;27;46043;-65
2023/01/23 08:51:03;;;;;;;;;47.25;35.50;;;;;6.06;56.78;102893.25;5080134;27;45413;-64
2023/01/23 08:53:29;;;;;;;;;38.25;31.00;;;;;6.08;56.53;102902.25;5077824;27;45465;-66
2023/01/23 08:55:59;;;;;;;;;42.50;29.75;;;;;6.12;56.65;102894.53;5075166;27;45473;-65
2023/01/23 08:58:25;;;;;;;;;37.50;30.50;;;;;5.98;57.23;102865.19;5066838;27;46160;-66
2023/01/23 09:00:50;;;;;;;;;45.25;37.25;;;;;6.06;56.79;102879.97;5077508;27;45613;-65
2023/01/23 09:03:16;;;;;;;;;37.00;33.25;;;;;6.05;57.33;102878.13;5063779;27;44864;-66
2023/01/23 09:05:41;;;;;;;;;47.75;38.00;;;;;6.10;56.91;102881.16;5072365;27;45510;-64
2023/01/23 09:08:06;;;;;;;;;50.25;38.25;;;;;6.12;56.97;102882.22;5067130;27;45398;-65
2023/01/23 09:10:32;;;;;;;;;44.75;33.25;;;;;6.10;56.51;102886.44;5074392;27;45479;-66
2023/01/23 09:12:58;;;;;;;;;33.75;30.00;;;;;6.08;56.48;102894.28;5090739;27;45456;-67
2023/01/23 09:15:24;;;;;;;;;40.00;33.75;;;;;6.06;57.28;102889.69;5098201;27;45786;-67
2023/01/23 09:17:49;;;;;;;;;47.50;32.00;;;;;6.08;56.94;102894.28;5092764;27;63618;-66
2023/01/23 09:20:15;;;;;;;;;53.25;36.50;;;;;6.15;57.37;102897.44;5092605;27;45493;-66
2023/01/23 09:22:40;;;;;;;;;50.00;35.75;;;;;6.06;56.56;102868.44;5097226;27;45193;-65
2023/01/23 09:25:07;;;;;;;;;36.50;33.25;;;;;6.19;57.05;102892.50;5093853;27;45444;-66
2023/01/23 09:27:32;;;;;;;;;51.50;36.75;;;;;6.22;56.78;102892.75;5080658;27;47901;-66
2023/01/23 09:29:58;;;;;;;;;41.75;34.25;;;;;6.19;56.96;102907.50;5096917;27;45516;-66
2023/01/23 09:32:23;;;;;;;;;51.75;37.50;;;;;6.03;56.71;102866.47;5094706;27;45514;-66
2023/01/23 09:34:48;;;;;;;;;47.75;31.50;;;;;6.31;56.69;102916.41;5095137;27;45501;-66
2023/01/23 09:37:17;;;;;;;;;35.50;32.75;;;;;6.28;56.31;102909.13;5094819;27;46083;-66
2023/01/23 09:39:43;;;;;;;;;30.50;27.50;;;;;6.33;56.19;102911.22;5092575;27;45388;-66
2023/01/23 09:42:18;;;;;;;;;45.25;31.50;;;;;6.38;56.25;102915.16;5096510;27;45654;-65
2023/01/23 09:44:49;;;;;;;;;52.00;38.50;;;;;6.45;56.23;102934.38;5090558;27;45265;-67
2023/01/23 09:47:33;;;;;;;;;41.50;33.25;;;;;6.45;56.51;102923.75;5078269;27;46106;-69
2023/01/23 09:50:13;;;;;;;;;37.50;25.75;;;;;6.48;56.11;102931.00;5091778;27;45559;-66
2023/01/23 09:52:48;;;;;;;;;47.00;33.75;;;;;6.48;56.23;102938.97;5076842;27;45566;-65
2023/01/23 09:55:28;;;;;;;;;39.00;32.50;;;;;6.49;55.65;102937.28;5092018;27;45530;-65
2023/01/23 09:57:55;;;;;;;;;38.75;30.50;;;;;6.46;55.81;102944.16;5079009;27;45433;-66
2023/01/23 10:00:31;;;;;;;;;42.50;34.25;;;;;6.46;56.17;102949.47;5088525;27;45653;-66
2023/01/23 10:03:00;;;;;;;;;46.00;37.25;;;;;6.46;56.23;102948.56;5078134;27;45460;-66
2023/01/23 10:05:41;;;;;;;;;42.50;33.50;;;;;6.47;55.94;102955.72;5077864;27;45449;-66
2023/01/23 10:08:37;;;;;;;;;57.00;40.00;;;;;6.50;56.14;102955.03;5090318;27;45501;-65
2023/01/23 10:11:05;;;;;;;;;37.50;32.50;;;;;6.52;55.68;102954.34;5097361;27;45496;-65
2023/01/23 10:13:58;;;;;;;;;40.75;29.00;;;;;6.54;56.32;102947.44;5096875;27;45529;-66
2023/01/23 10:17:01;;;;;;;;;42.75;30.50;;;;;6.44;55.94;102931.59;5076049;27;45355;-68
2023/01/23 10:19:56;;;;;;;;;38.50;31.25;;;;;6.57;55.80;102941.44;5095356;27;45425;-66
2023/01/23 10:22:50;;;;;;;;;38.00;26.75;;;;;6.55;55.95;102948.34;5092012;27;45405;-66
2023/01/23 10:25:26;;;;;;;;;30.00;29.00;;;;;6.60;55.55;102950.56;5095781;27;45415;-63
2023/01/23 10:27:57;;;;;;;;;42.50;31.75;;;;;6.58;55.84;102945.94;5089077;27;45576;-66
2023/01/23 10:30:29;;;;;;;;;38.00;29.50;;;;;6.54;56.39;102947.44;5095317;27;45724;-66
2023/01/23 10:33:11;;;;;;;;;46.75;33.25;;;;;6.56;55.41;102947.56;5093982;27;45465;-65
2023/01/23 10:35:55;;;;;;;;;34.25;27.50;;;;;6.51;55.62;102956.91;5088923;27;45492;-65
2023/01/23 10:38:48;;;;;;;;;35.00;27.75;;;;;6.48;55.66;102951.34;5095758;27;45485;-66
2023/01/23 10:41:21;;;;;;;;;48.00;34.25;;;;;6.43;55.88;102943.00;5091026;27;45616;-64
2023/01/23 10:43:52;;;;;;;;;43.00;36.00;;;;;6.48;56.18;102954.00;5094177;27;45334;-63
2023/01/23 10:46:30;;;;;;;;;32.75;24.50;;;;;6.45;56.32;102939.69;5090376;27;45267;-65
2023/01/23 10:48:58;;;;;;;;;37.00;26.75;;;;;6.52;55.86;102938.44;5092739;27;45527;-63
2023/01/23 10:51:26;;;;;;;;;44.50;29.75;;;;;6.54;55.64;102941.19;5096625;27;46846;-69
2023/01/23 10:54:05;;;;;;;;;42.75;32.50;;;;;6.54;55.29;102941.19;5097491;27;45500;-69
2023/01/23 10:56:33;;;;;;;;;29.25;29.25;;;;;6.52;55.33;102934.84;5097329;27;45514;-71
2023/01/23 10:59:01;;;;;;;;;38.25;26.25;;;;;6.45;55.39;102922.78;5087175;27;45460;-69
2023/01/23 11:01:31;;;;;;;;;34.25;30.25;;;;;6.48;55.44;102948.69;5095495;27;47159;-68
2023/01/23 11:03:56;;;;;;;;;40.75;33.00;;;;;6.55;56.13;102929.75;5094346;27;45451;-66
2023/01/23 11:06:24;;;;;;;;;66.75;46.75;;;;;6.60;55.16;102926.66;5095344;27;45392;-68
2023/01/23 11:09:01;;;;;;;;;32.75;24.25;;;;;6.62;55.37;102927.69;5067221;28;46024;-68
2023/01/23 11:11:29;;;;;;;;;39.00;30.25;;;;;6.63;55.05;102924.25;5094072;27;46382;-70
2023/01/23 11:14:10;;;;;;;;;47.00;35.50;;;;;6.66;55.45;102926.19;5077145;27;45537;-67
2023/01/23 11:16:35;;;;;;;;;38.75;32.50;;;;;6.68;55.30;102927.25;5071890;27;45690;-69
2023/01/23 11:19:06;;;;;;;;;34.00;32.50;;;;;6.64;55.02;102923.44;5068618;27;45665;-66
2023/01/23 11:21:33;;;;;;;;;41.00;33.50;;;;;6.62;55.15;102905.53;5078532;27;46729;-68
2023/01/23 11:24:23;;;;;;;;;28.75;25.50;;;;;6.68;54.63;102916.63;5072960;27;45458;-69